createdAt,value
2022-11-17T00:02:13.977Z,99.70
2022-11-17T00:04:41.851Z,99.90
2022-11-17T00:07:09.839Z,99.90
2022-11-17T00:09:37.722Z,99.90
2022-11-17T00:12:24.623Z,99.90
2022-11-17T00:14:56.444Z,99.90
2022-11-17T00:17:24.289Z,99.90
2022-11-17T00:20:09.771Z,99.90
2022-11-17T00:22:37.606Z,99.90
2022-11-17T00:25:06.043Z,99.90
2022-11-17T00:27:33.881Z,99.90
2022-11-17T00:30:03.145Z,99.90
2022-11-17T00:32:48.395Z,99.90
2022-11-17T00:35:16.421Z,99.90
2022-11-17T00:38:05.079Z,99.90
2022-11-17T00:40:32.909Z,99.90
2022-11-17T00:43:00.817Z,99.90
2022-11-17T00:45:29.998Z,99.90
2022-11-17T00:47:57.849Z,99.90
2022-11-17T00:50:25.708Z,99.90
2022-11-17T00:52:53.577Z,99.90
2022-11-17T00:55:21.456Z,99.90
2022-11-17T00:57:49.321Z,99.90
2022-11-17T01:00:17.436Z,99.90
2022-11-17T01:02:46.626Z,99.90
2022-11-17T01:05:14.615Z,99.90
2022-11-17T01:07:42.484Z,99.90
2022-11-17T01:10:10.992Z,99.90
2022-11-17T01:12:39.117Z,99.90
2022-11-17T01:15:07.866Z,99.90
2022-11-17T01:17:35.708Z,99.90
2022-11-17T01:20:06.156Z,99.90
2022-11-17T01:22:34.006Z,99.90
2022-11-17T01:25:01.893Z,99.90
2022-11-17T01:27:29.733Z,99.90
2022-11-17T01:29:57.602Z,99.90
2022-11-17T01:32:25.492Z,99.90
2022-11-17T01:34:53.380Z,99.90
2022-11-17T01:37:22.625Z,99.90
2022-11-17T01:39:51.151Z,99.90
2022-11-17T01:42:20.560Z,99.90
2022-11-17T01:45:00.291Z,99.90
2022-11-17T01:47:39.738Z,99.90
2022-11-17T01:50:14.128Z,99.90
2022-11-17T01:52:43.737Z,99.90
2022-11-17T01:55:12.706Z,99.90
2022-11-17T01:57:45.959Z,99.90
2022-11-17T02:00:14.677Z,99.90
2022-11-17T02:02:44.278Z,99.90
2022-11-17T02:05:23.529Z,99.90
2022-11-17T02:07:55.694Z,99.90
2022-11-17T02:10:23.586Z,99.90
2022-11-17T02:12:53.276Z,99.90
2022-11-17T02:15:21.731Z,99.90
2022-11-17T02:17:52.331Z,99.90
2022-11-17T02:20:28.034Z,99.90
2022-11-17T02:23:21.286Z,99.90
2022-11-17T02:26:20.620Z,99.90
2022-11-17T02:28:58.996Z,99.90
2022-11-17T02:31:34.460Z,99.90
2022-11-17T02:34:10.828Z,99.90
2022-11-17T02:36:46.890Z,99.90
2022-11-17T02:39:21.066Z,99.90
2022-11-17T02:41:56.414Z,99.90
2022-11-17T02:44:31.546Z,99.90
2022-11-17T02:47:05.342Z,99.90
2022-11-17T02:49:37.244Z,99.90
2022-11-17T02:52:07.083Z,99.90
2022-11-17T02:54:35.213Z,99.90
2022-11-17T02:57:03.055Z,99.90
2022-11-17T02:59:36.345Z,99.90
2022-11-17T03:02:24.820Z,99.90
2022-11-17T03:05:05.483Z,99.90
2022-11-17T03:07:49.382Z,99.90
2022-11-17T03:10:21.417Z,99.90
2022-11-17T03:12:55.953Z,99.90
2022-11-17T03:15:29.903Z,99.90
2022-11-17T03:18:05.538Z,99.90
2022-11-17T03:20:39.458Z,99.90
2022-11-17T03:23:12.542Z,99.90
2022-11-17T03:25:44.214Z,99.90
2022-11-17T03:28:13.352Z,99.90
2022-11-17T03:30:45.371Z,99.90
2022-11-17T03:33:16.939Z,99.90
2022-11-17T03:35:51.967Z,99.90
2022-11-17T03:38:23.425Z,99.90
2022-11-17T03:40:55.149Z,99.90
2022-11-17T03:43:25.792Z,99.90
2022-11-17T03:45:58.609Z,99.90
2022-11-17T03:48:33.557Z,99.90
2022-11-17T03:51:09.086Z,99.90
2022-11-17T03:53:38.042Z,99.90
2022-11-17T03:56:16.126Z,99.90
2022-11-17T03:58:49.843Z,99.90
2022-11-17T04:01:21.904Z,99.90
2022-11-17T04:03:49.862Z,99.90
2022-11-17T04:06:17.734Z,99.90
2022-11-17T04:08:45.823Z,99.90
2022-11-17T04:11:39.663Z,99.90
2022-11-17T04:14:25.240Z,99.90
2022-11-17T04:16:54.442Z,99.90
2022-11-17T04:19:22.245Z,99.90
2022-11-17T04:21:50.047Z,99.90
2022-11-17T04:24:18.265Z,99.90
2022-11-17T04:27:03.678Z,99.90
2022-11-17T04:29:31.509Z,99.90
2022-11-17T04:32:00.693Z,99.90
2022-11-17T04:34:28.525Z,99.90
2022-11-17T04:36:56.433Z,99.90
2022-11-17T04:39:24.443Z,99.90
2022-11-17T04:41:54.013Z,99.90
2022-11-17T04:44:24.828Z,99.90
2022-11-17T04:46:53.108Z,99.90
2022-11-17T04:49:23.475Z,99.90
2022-11-17T04:51:52.520Z,99.90
2022-11-17T04:54:22.065Z,99.90
2022-11-17T04:56:49.940Z,99.90
2022-11-17T04:59:17.984Z,99.90
2022-11-17T05:01:46.115Z,99.90
2022-11-17T05:04:36.094Z,99.90
2022-11-17T05:07:05.550Z,99.90
2022-11-17T05:09:33.646Z,99.90
2022-11-17T05:12:19.147Z,99.90
2022-11-17T05:14:50.035Z,99.90
2022-11-17T05:17:17.317Z,99.90
2022-11-17T05:19:46.469Z,99.90
2022-11-17T05:22:35.022Z,99.90
2022-11-17T05:25:02.928Z,99.90
2022-11-17T05:27:31.036Z,99.90
2022-11-17T05:29:58.893Z,99.90
2022-11-17T05:32:26.811Z,99.90
2022-11-17T05:34:54.671Z,99.90
2022-11-17T05:37:23.885Z,99.90
2022-11-17T05:39:51.714Z,99.90
2022-11-17T05:42:19.565Z,99.90
2022-11-17T05:44:48.394Z,99.90
2022-11-17T05:47:16.695Z,99.90
2022-11-17T05:49:44.688Z,99.90
2022-11-17T05:52:12.577Z,99.90
2022-11-17T05:54:41.794Z,99.90
2022-11-17T05:57:12.974Z,99.30
2022-11-17T05:59:44.531Z,99.90
2022-11-17T06:02:16.336Z,99.90
2022-11-17T06:04:46.257Z,99.90
2022-11-17T06:07:14.291Z,99.90
2022-11-17T06:09:43.656Z,99.90
2022-11-17T06:12:12.763Z,99.90
2022-11-17T06:14:40.656Z,99.60
2022-11-17T06:17:13.483Z,99.90
2022-11-17T06:19:47.089Z,99.90
2022-11-17T06:22:15.067Z,99.90
2022-11-17T06:24:45.700Z,99.90
2022-11-17T06:27:16.697Z,99.90
2022-11-17T06:29:45.401Z,99.90
2022-11-17T06:32:14.582Z,99.90
2022-11-17T06:34:43.301Z,99.90
2022-11-17T06:37:11.474Z,99.90
2022-11-17T06:39:39.357Z,99.90
2022-11-17T06:42:08.584Z,99.90
2022-11-17T06:44:36.409Z,99.90
2022-11-17T06:47:04.227Z,99.90
2022-11-17T06:49:32.030Z,99.90
2022-11-17T06:51:59.844Z,99.90
2022-11-17T06:54:27.643Z,99.90
2022-11-17T06:56:55.545Z,99.90
2022-11-17T06:59:24.717Z,99.90
2022-11-17T07:01:52.573Z,99.90
2022-11-17T07:04:20.403Z,99.90
2022-11-17T07:06:48.205Z,99.90
2022-11-17T07:09:16.054Z,99.90
2022-11-17T07:11:43.889Z,99.90
2022-11-17T07:14:11.784Z,99.90
2022-11-17T07:16:42.932Z,99.90
2022-11-17T07:19:11.323Z,98.80
2022-11-17T07:21:39.207Z,99.90
2022-11-17T07:24:07.554Z,99.90
2022-11-17T07:26:35.445Z,99.90
2022-11-17T07:29:03.299Z,99.90
2022-11-17T07:31:31.218Z,99.90
2022-11-17T07:34:00.407Z,99.90
2022-11-17T07:36:28.250Z,99.90
2022-11-17T07:38:56.086Z,99.90
2022-11-17T07:41:23.971Z,99.90
2022-11-17T07:43:51.834Z,99.90
2022-11-17T07:46:19.736Z,99.90
2022-11-17T07:48:53.951Z,99.90
2022-11-17T07:51:23.165Z,99.90
2022-11-17T07:53:51.043Z,99.90
2022-11-17T07:56:18.921Z,99.90
2022-11-17T07:58:46.776Z,99.80
2022-11-17T08:01:16.042Z,99.90
2022-11-17T08:03:44.268Z,99.60
2022-11-17T08:06:12.399Z,99.20
2022-11-17T08:08:41.657Z,99.90
2022-11-17T08:11:11.024Z,99.00
2022-11-17T08:13:39.962Z,98.00
2022-11-17T08:16:09.032Z,99.00
2022-11-17T08:18:37.496Z,99.10
2022-11-17T08:21:07.550Z,98.50
2022-11-17T08:23:35.913Z,98.90
2022-11-17T08:26:05.949Z,99.90
2022-11-17T08:28:34.992Z,99.50
2022-11-17T08:31:04.105Z,99.90
2022-11-17T08:33:32.199Z,99.90
2022-11-17T08:36:00.218Z,99.90
2022-11-17T08:38:29.449Z,99.90
2022-11-17T08:40:57.545Z,99.90
2022-11-17T08:43:26.885Z,99.80
2022-11-17T08:45:54.744Z,99.80
2022-11-17T08:48:22.617Z,98.50
2022-11-17T08:50:50.993Z,99.30
2022-11-17T08:53:21.009Z,99.80
2022-11-17T08:55:49.169Z,99.90
2022-11-17T08:58:17.629Z,99.90
2022-11-17T09:00:47.790Z,99.90
2022-11-17T09:03:16.439Z,99.60
2022-11-17T09:05:46.924Z,99.90
2022-11-17T09:11:05.539Z,99.50
2022-11-17T09:13:33.622Z,99.10
2022-11-17T09:16:04.165Z,99.00
2022-11-17T09:18:32.252Z,99.10
2022-11-17T09:21:01.925Z,99.10
2022-11-17T09:23:31.596Z,99.30
2022-11-17T09:25:59.999Z,98.70
2022-11-17T09:28:28.244Z,99.70
2022-11-17T09:30:56.137Z,99.90
2022-11-17T09:33:25.349Z,99.90
2022-11-17T09:35:57.147Z,99.90
2022-11-17T09:38:25.330Z,99.60
2022-11-17T09:40:55.135Z,99.90
2022-11-17T09:43:28.349Z,99.90
2022-11-17T09:46:07.158Z,99.90
2022-11-17T09:48:42.207Z,99.90
2022-11-17T09:51:13.558Z,99.90
2022-11-17T09:53:49.098Z,99.90
2022-11-17T09:56:17.809Z,99.90
2022-11-17T09:58:49.014Z,99.90
2022-11-17T10:01:19.699Z,99.90
2022-11-17T10:03:50.889Z,99.90
2022-11-17T10:06:21.517Z,99.30
2022-11-17T10:09:00.143Z,99.90
2022-11-17T10:11:33.558Z,98.20
2022-11-17T10:14:13.017Z,99.90
2022-11-17T10:16:43.349Z,99.90
2022-11-17T10:19:20.668Z,99.90
2022-11-17T10:21:51.445Z,99.90
2022-11-17T10:24:36.168Z,99.90
2022-11-17T10:27:06.383Z,99.90
2022-11-17T10:29:34.389Z,99.30
2022-11-17T10:32:09.138Z,99.90
2022-11-17T10:34:41.630Z,99.90
2022-11-17T10:37:25.837Z,99.90
2022-11-17T10:40:20.546Z,99.90
2022-11-17T10:42:58.916Z,97.50
2022-11-17T10:45:27.152Z,99.90
2022-11-17T10:48:09.983Z,99.90
2022-11-17T10:50:51.409Z,99.90
2022-11-17T10:53:38.252Z,99.90
2022-11-17T10:56:15.515Z,99.80
2022-11-17T10:59:12.539Z,99.20
2022-11-17T11:01:42.876Z,98.30
2022-11-17T11:04:30.292Z,98.90
2022-11-17T11:07:11.413Z,98.30
2022-11-17T11:09:45.969Z,98.40
2022-11-17T11:12:20.177Z,98.40
2022-11-17T11:14:52.209Z,98.20
2022-11-17T11:17:20.861Z,98.20
2022-11-17T11:19:52.924Z,98.00
2022-11-17T11:22:35.949Z,98.10
2022-11-17T11:25:11.567Z,98.10
2022-11-17T11:27:58.703Z,98.20
2022-11-17T11:30:27.495Z,97.30
2022-11-17T11:33:07.208Z,97.90
2022-11-17T11:35:47.095Z,97.80
2022-11-17T11:38:35.141Z,97.80
2022-11-17T11:41:16.851Z,98.10
2022-11-17T11:43:56.057Z,97.90
2022-11-17T11:46:35.402Z,98.00
2022-11-17T11:49:15.274Z,97.80
2022-11-17T11:51:44.557Z,97.80
2022-11-17T11:54:19.686Z,98.10
2022-11-17T11:56:49.464Z,96.70
2022-11-17T11:59:22.140Z,97.60
2022-11-17T12:02:00.617Z,98.00
2022-11-17T12:04:41.207Z,97.40
2022-11-17T12:07:14.836Z,97.10
2022-11-17T12:10:00.908Z,96.20
2022-11-17T12:12:32.529Z,98.60
2022-11-17T12:15:33.304Z,98.40
2022-11-17T12:18:05.850Z,98.10
2022-11-17T12:20:58.803Z,97.70
2022-11-17T12:23:49.834Z,96.50
2022-11-17T12:26:27.838Z,98.10
2022-11-17T12:29:32.839Z,95.60
2022-11-17T12:32:02.603Z,97.60
2022-11-17T12:34:32.604Z,97.60
2022-11-17T12:37:27.354Z,97.20
2022-11-17T12:40:07.829Z,97.20
2022-11-17T12:42:37.830Z,97.20
2022-11-17T12:45:10.171Z,97.10
2022-11-17T12:47:39.927Z,97.10
2022-11-17T12:50:37.328Z,97.30
2022-11-17T12:53:26.952Z,97.10
2022-11-17T12:56:27.007Z,97.20
2022-11-17T12:59:09.001Z,95.60
2022-11-17T13:01:43.910Z,92.80
2022-11-17T13:04:16.014Z,93.20
2022-11-17T13:07:00.863Z,92.80
2022-11-17T13:09:29.902Z,92.60
2022-11-17T13:12:02.171Z,92.40
2022-11-17T13:14:31.897Z,92.60
2022-11-17T13:17:01.114Z,93.00
2022-11-17T13:19:35.208Z,92.70
2022-11-17T13:22:05.712Z,92.70
2022-11-17T13:24:36.541Z,93.30
2022-11-17T13:27:07.352Z,93.70
2022-11-17T13:29:37.796Z,94.00
2022-11-17T13:32:17.333Z,93.40
2022-11-17T13:34:53.814Z,92.80
2022-11-17T13:37:23.223Z,92.60
2022-11-17T13:40:02.265Z,92.30
2022-11-17T13:42:33.063Z,92.60
2022-11-17T13:45:06.408Z,93.00
2022-11-17T13:47:46.546Z,93.30
2022-11-17T13:50:39.846Z,92.50
2022-11-17T13:53:22.934Z,92.80
2022-11-17T13:55:51.311Z,93.60
2022-11-17T13:58:29.829Z,93.50
2022-11-17T14:01:00.360Z,93.00
2022-11-17T14:03:39.749Z,93.10
2022-11-17T14:06:09.648Z,93.00
2022-11-17T14:08:39.335Z,93.30
2022-11-17T14:11:21.364Z,93.30
2022-11-17T14:13:52.039Z,93.80
2022-11-17T14:16:27.471Z,94.40
2022-11-17T14:19:03.586Z,94.30
2022-11-17T14:21:32.376Z,94.70
2022-11-17T14:24:06.283Z,94.50
2022-11-17T14:26:34.483Z,94.70
2022-11-17T14:29:03.129Z,94.90
2022-11-17T14:31:33.261Z,94.60
2022-11-17T14:34:01.549Z,94.70
2022-11-17T14:36:29.548Z,95.10
2022-11-17T14:38:57.392Z,94.60
2022-11-17T14:41:25.265Z,95.60
2022-11-17T14:43:53.107Z,95.60
2022-11-17T14:46:23.774Z,95.80
2022-11-17T14:48:54.225Z,96.00
2022-11-17T14:51:22.406Z,95.60
2022-11-17T14:53:50.428Z,95.80
2022-11-17T14:56:20.974Z,95.60
2022-11-17T14:58:53.326Z,95.30
2022-11-17T15:01:25.190Z,93.50
2022-11-17T15:03:55.224Z,95.80
2022-11-17T15:06:24.177Z,96.50
2022-11-17T15:08:55.421Z,96.20
2022-11-17T15:11:23.623Z,96.30
2022-11-17T15:13:51.533Z,96.40
2022-11-17T15:16:19.555Z,95.20
2022-11-17T15:18:48.592Z,95.80
2022-11-17T15:21:18.158Z,94.70
2022-11-17T15:23:46.399Z,96.10
2022-11-17T15:26:16.317Z,96.20
2022-11-17T15:28:44.436Z,93.80
2022-11-17T15:31:14.181Z,93.50
2022-11-17T15:33:42.694Z,94.90
2022-11-17T15:36:12.857Z,94.40
2022-11-17T15:38:42.264Z,95.60
2022-11-17T15:41:12.217Z,96.20
2022-11-17T15:43:41.517Z,94.30
2022-11-17T15:46:11.146Z,93.60
2022-11-17T15:48:42.770Z,95.00
2022-11-17T15:51:12.950Z,94.90
2022-11-17T15:53:43.080Z,94.50
2022-11-17T15:56:13.050Z,95.90
2022-11-17T15:58:42.223Z,96.00
2022-11-17T16:01:14.478Z,95.10
2022-11-17T16:03:44.121Z,95.80
2022-11-17T16:06:13.761Z,96.60
2022-11-17T16:08:43.003Z,97.20
2022-11-17T16:11:11.955Z,97.30
2022-11-17T16:13:39.889Z,97.10
2022-11-17T16:16:09.040Z,96.40
2022-11-17T16:18:38.511Z,96.20
2022-11-17T16:21:08.926Z,96.60
2022-11-17T16:23:42.765Z,96.50
2022-11-17T16:26:11.707Z,95.50
2022-11-17T16:28:39.956Z,96.20
2022-11-17T16:31:15.937Z,96.60
2022-11-17T16:33:49.165Z,97.10
2022-11-17T16:36:17.362Z,97.30
2022-11-17T16:39:00.340Z,95.90
2022-11-17T16:41:31.632Z,96.60
2022-11-17T16:43:59.850Z,97.40
2022-11-17T16:46:29.778Z,95.20
2022-11-17T16:48:58.487Z,94.60
2022-11-17T16:51:26.371Z,94.40
2022-11-17T16:53:58.416Z,94.20
2022-11-17T16:56:26.693Z,95.30
2022-11-17T16:58:55.604Z,95.20
2022-11-17T17:01:26.178Z,94.80
2022-11-17T17:03:56.712Z,95.20
2022-11-17T17:06:25.197Z,95.90
2022-11-17T17:08:59.129Z,96.30
2022-11-17T17:11:29.035Z,96.60
2022-11-17T17:13:57.287Z,96.40
2022-11-17T17:16:25.729Z,95.20
2022-11-17T17:18:56.087Z,94.90
2022-11-17T17:21:24.343Z,95.80
2022-11-17T17:23:52.235Z,97.40
2022-11-17T17:26:22.979Z,97.90
2022-11-17T17:28:52.613Z,97.60
2022-11-17T17:31:22.377Z,95.70
2022-11-17T17:33:51.381Z,95.40
2022-11-17T17:36:20.990Z,96.10
2022-11-17T17:38:55.015Z,96.20
2022-11-17T17:41:26.941Z,96.30
2022-11-17T17:43:59.951Z,96.00
2022-11-17T17:46:29.674Z,96.20
2022-11-17T17:48:57.823Z,95.90
2022-11-17T17:51:27.897Z,96.90
2022-11-17T17:53:57.967Z,97.00
2022-11-17T17:56:27.512Z,97.20
2022-11-17T17:58:55.982Z,98.20
2022-11-17T18:01:25.550Z,97.90
2022-11-17T18:03:54.989Z,97.60
2022-11-17T18:06:23.384Z,97.60
2022-11-17T18:08:51.224Z,97.40
2022-11-17T18:11:21.215Z,97.40
2022-11-17T18:13:52.155Z,96.80
2022-11-17T18:16:22.376Z,97.50
2022-11-17T18:18:50.999Z,96.00
2022-11-17T18:21:20.470Z,96.90
2022-11-17T18:23:48.322Z,94.50
2022-11-17T18:26:17.894Z,97.50
2022-11-17T18:28:52.940Z,98.70
2022-11-17T18:31:21.831Z,98.10
2022-11-17T18:33:52.034Z,96.20
2022-11-17T18:36:21.041Z,95.70
2022-11-17T18:38:49.534Z,95.80
2022-11-17T18:41:18.515Z,96.30
2022-11-17T18:43:46.890Z,96.30
2022-11-17T18:46:17.537Z,96.40
2022-11-17T18:48:47.599Z,96.40
2022-11-17T18:51:19.634Z,95.90
2022-11-17T18:53:48.864Z,96.20
2022-11-17T18:56:20.431Z,95.70
2022-11-17T18:58:48.343Z,96.60
2022-11-17T19:01:19.158Z,97.40
2022-11-17T19:03:48.949Z,97.70
2022-11-17T19:06:18.402Z,97.60
2022-11-17T19:08:48.100Z,97.60
2022-11-17T19:11:17.161Z,97.70
2022-11-17T19:13:45.766Z,97.60
2022-11-17T19:16:15.783Z,96.80
2022-11-17T19:18:46.763Z,97.10
2022-11-17T19:21:16.539Z,97.60
2022-11-17T19:23:51.142Z,97.50
2022-11-17T19:26:21.698Z,97.80
2022-11-17T19:28:49.871Z,97.60
2022-11-17T19:31:19.100Z,98.30
2022-11-17T19:33:49.436Z,98.30
2022-11-17T19:36:18.925Z,97.20
2022-11-17T19:38:49.714Z,97.90
2022-11-17T19:41:19.299Z,97.50
2022-11-17T19:43:47.615Z,96.60
2022-11-17T19:46:17.669Z,95.80
2022-11-17T19:48:45.963Z,95.80
2022-11-17T19:51:18.412Z,97.00
2022-11-17T19:53:46.551Z,96.80
2022-11-17T19:56:14.694Z,96.50
2022-11-17T19:58:42.792Z,95.80
2022-11-17T20:01:13.559Z,98.10
2022-11-17T20:03:42.444Z,98.90
2022-11-17T20:06:11.981Z,98.10
2022-11-17T20:08:41.398Z,97.80
2022-11-17T20:11:10.934Z,97.20
2022-11-17T20:13:39.496Z,97.60
2022-11-17T20:16:12.259Z,98.10
2022-11-17T20:18:41.607Z,96.10
2022-11-17T20:21:10.504Z,97.80
2022-11-17T20:23:39.437Z,98.10
2022-11-17T20:26:10.126Z,97.60
2022-11-17T20:28:39.259Z,98.00
2022-11-17T20:31:09.702Z,98.80
2022-11-17T20:33:37.774Z,99.20
2022-11-17T20:36:06.520Z,98.60
2022-11-17T20:38:34.454Z,99.20
2022-11-17T20:41:02.815Z,98.30
2022-11-17T20:43:32.342Z,98.50
2022-11-17T20:46:00.289Z,98.80
2022-11-17T20:48:29.014Z,99.00
2022-11-17T20:50:57.874Z,99.20
2022-11-17T20:53:26.355Z,97.80
2022-11-17T20:55:55.686Z,98.40
2022-11-17T20:58:23.576Z,98.70
2022-11-17T21:00:53.328Z,98.90
2022-11-17T21:03:24.764Z,98.80
2022-11-17T21:05:58.665Z,98.80
2022-11-17T21:08:28.223Z,98.70
2022-11-17T21:10:56.618Z,98.60
2022-11-17T21:13:24.723Z,98.20
2022-11-17T21:16:05.472Z,96.90
2022-11-17T21:18:33.788Z,98.00
2022-11-17T21:21:04.474Z,98.20
2022-11-17T21:23:32.541Z,98.30
2022-11-17T21:26:05.055Z,98.30
2022-11-17T21:28:32.894Z,98.60
2022-11-17T21:31:08.453Z,99.00
2022-11-17T21:33:36.965Z,99.00
2022-11-17T21:36:06.425Z,99.00
2022-11-17T21:38:34.590Z,99.20
2022-11-17T21:41:03.827Z,99.60
2022-11-17T21:43:32.155Z,99.30
2022-11-17T21:46:03.341Z,99.20
2022-11-17T21:48:32.588Z,99.00
2022-11-17T21:51:00.742Z,98.90
2022-11-17T21:53:29.754Z,98.70
2022-11-17T21:56:01.701Z,98.70
2022-11-17T21:58:29.830Z,98.30
2022-11-17T22:00:57.847Z,98.60
2022-11-17T22:03:26.176Z,98.70
2022-11-17T22:06:00.979Z,98.60
2022-11-17T22:08:30.249Z,97.40
2022-11-17T22:10:58.140Z,97.20
2022-11-17T22:13:26.032Z,97.80
2022-11-17T22:15:53.906Z,97.90
2022-11-17T22:18:21.773Z,97.20
2022-11-17T22:20:51.992Z,98.20
2022-11-17T22:23:21.234Z,97.40
2022-11-17T22:25:54.778Z,97.10
2022-11-17T22:28:23.442Z,97.60
2022-11-17T22:30:53.975Z,96.10
2022-11-17T22:33:23.342Z,96.60
2022-11-17T22:35:51.497Z,96.10
2022-11-17T22:38:20.742Z,98.90
2022-11-17T22:40:48.643Z,98.50
2022-11-17T22:43:16.525Z,98.00
2022-11-17T22:45:44.393Z,98.20
2022-11-17T22:48:12.254Z,98.10
2022-11-17T22:50:40.131Z,96.50
2022-11-17T22:53:08.001Z,96.10
2022-11-17T22:55:37.276Z,96.30
2022-11-17T22:58:05.191Z,95.50
2022-11-17T23:00:33.108Z,96.00
2022-11-17T23:03:01.109Z,98.50
2022-11-17T23:05:29.065Z,99.20
2022-11-17T23:07:56.965Z,97.10
2022-11-17T23:10:24.930Z,97.00
2022-11-17T23:12:54.396Z,97.00
2022-11-17T23:15:22.729Z,97.70
2022-11-17T23:17:50.615Z,98.40
2022-11-17T23:20:18.616Z,96.30
2022-11-17T23:22:46.508Z,97.70
2022-11-17T23:25:14.371Z,98.50
2022-11-17T23:27:42.243Z,99.80
2022-11-17T23:30:13.037Z,99.60
2022-11-17T23:32:40.924Z,99.30
2022-11-17T23:35:09.819Z,98.60
2022-11-17T23:37:37.718Z,98.60
2022-11-17T23:40:06.409Z,98.10
2022-11-17T23:42:38.649Z,95.80
2022-11-17T23:45:09.349Z,96.00
2022-11-17T23:47:38.713Z,96.30
2022-11-17T23:50:07.362Z,98.30
2022-11-17T23:52:35.255Z,98.20
2022-11-17T23:55:03.118Z,96.50
2022-11-17T23:57:31.007Z,95.80
2022-11-17T23:59:58.882Z,96.40
